Time,TemperatureF,DewpointF,PressureIn,WindDirection,WindDirectionDegrees,WindSpeedMPH,WindSpeedGustMPH,Humidity,HourlyPrecipIn,Conditions,Clouds,dailyrainin,SoftwareType,DateUTC
2013-05-06 00:01:00,70.6,60.7,29.97,WSW,246,5.7,6.9,71,0.00,RA,OVC,0.00,WeatherDisplay:10.37,2013-05-06 04:01:00,
2013-05-06 00:06:00,70.5,60.6,29.97,WSW,258,6.1,9.2,71,0.00,RA,OVC,0.00,WeatherDisplay:10.37,2013-05-06 04:06:00,
2013-05-06 00:11:00,70.5,60.6,29.97,SW,220,3.6,5.8,71,0.00,CLR,OVC,0.00,WeatherDisplay:10.37,2013-05-06 04:11:00,
2013-05-06 00:16:00,70.5,60.6,29.97,WSW,254,6.3,9.2,71,0.00,CLR,OVC,0.00,WeatherDisplay:10.37,2013-05-06 04:16:00,
2013-05-06 00:21:00,70.7,60.8,29.97,WSW,256,5.4,8.1,71,0.00,CLR,OVC,0.00,WeatherDisplay:10.37,2013-05-06 04:21:00,
2013-05-06 00:26:00,70.7,60.8,29.98,SW,234,6.5,8.1,71,0.00,CLR,OVC,0.00,WeatherDisplay:10.37,2013-05-06 04:26:00,
2013-05-06 00:31:00,70.7,60.8,29.98,WSW,237,5.4,8.1,71,0.00,CLR,OVC,0.00,WeatherDisplay:10.37,2013-05-06 04:31:00,
2013-05-06 00:36:00,70.7,60.4,29.97,SW,220,7.3,12.7,70,0.00,CLR,OVC,0.00,WeatherDisplay:10.37,2013-05-06 04:36:00,
2013-05-06 00:41:00,70.9,60.6,29.97,WSW,256,6.7,9.2,70,0.00,CLR,OVC,0.00,WeatherDisplay:10.37,2013-05-06 04:41:00,
2013-05-06 00:46:00,70.9,61.0,29.97,SW,230,5.4,8.1,71,0.00,CLR,OVC,0.00,WeatherDisplay:10.37,2013-05-06 04:46:00,
2013-05-06 00:51:00,70.9,61.0,29.97,West,267,6.0,11.5,71,0.00,CLR,OVC,0.00,WeatherDisplay:10.37,2013-05-06 04:51:00,
2013-05-06 00:56:00,70.9,61.0,29.97,West,272,7.2,11.4,71,0.00,CLR,OVC,0.00,WeatherDisplay:10.37,2013-05-06 04:56:00,
2013-05-06 01:01:00,70.8,60.9,29.97,South,189,6.4,12.7,71,0.00,CLR,OVC,0.00,WeatherDisplay:10.37,2013-05-06 05:01:00,
2013-05-06 01:06:00,71.0,61.1,29.97,WNW,287,7.1,12.7,71,0.00,CLR,OVC,0.00,WeatherDisplay:10.37,2013-05-06 05:06:00,
2013-05-06 01:11:00,71.0,61.5,29.96,West,270,6.7,11.5,72,0.00,CLR,OVC,0.00,WeatherDisplay:10.37,2013-05-06 05:11:00,
2013-05-06 01:16:00,71.1,61.6,29.96,SW,233,2.8,9.2,72,0.00,CLR,OVC,0.00,WeatherDisplay:10.37,2013-05-06 05:16:00,
2013-05-06 01:21:00,71.2,61.7,29.96,WSW,244,6.6,11.5,72,0.00,CLR,OVC,0.00,WeatherDisplay:10.37,2013-05-06 05:21:00,
2013-05-06 01:26:00,71.2,61.7,29.96,SW,227,5.1,9.2,72,0.00,CLR,OVC,0.00,WeatherDisplay:10.37,2013-05-06 05:26:00,
2013-05-06 01:31:00,71.2,62.1,29.96,SW,224,6.1,12.7,73,0.00,CLR,OVC,0.00,WeatherDisplay:10.37,2013-05-06 05:31:00,
2013-05-06 01:36:00,71.4,62.3,29.96,WSW,251,5.3,10.4,73,0.00,CLR,OVC,0.00,WeatherDisplay:10.37,2013-05-06 05:36:00,
2013-05-06 01:41:00,71.4,62.3,29.95,SSW,202,6.0,12.7,73,0.00,CLR,OVC,0.00,WeatherDisplay:10.37,2013-05-06 05:41:00,
2013-05-06 01:46:00,71.6,62.5,29.95,WNW,285,5.8,11.5,73,0.00,CLR,OVC,0.00,WeatherDisplay:10.37,2013-05-06 05:46:00,
2013-05-06 01:51:00,71.7,63.7,29.95,WNW,299,9.9,13.8,76,0.00,CLR,OVC,0.00,WeatherDisplay:10.37,2013-05-06 05:51:00,
2013-05-06 01:56:00,71.7,64.8,29.95,NW,326,8.7,16.1,79,0.00,CLR,OVC,0.00,WeatherDisplay:10.37,2013-05-06 05:56:00,
2013-05-06 02:01:00,71.1,64.6,29.95,WNW,284,6.1,11.5,80,0.00,CLR,OVC,0.00,WeatherDisplay:10.37,2013-05-06 06:01:00,
2013-05-06 02:06:00,70.8,62.9,29.95,West,264,9.3,15.0,76,0.00,CLR,OVC,0.00,WeatherDisplay:10.37,2013-05-06 06:06:00,
2013-05-06 02:11:00,71.0,62.7,29.95,WNW,291,7.0,10.4,75,0.00,CLR,OVC,0.00,WeatherDisplay:10.37,2013-05-06 06:11:00,
2013-05-06 02:16:00,70.9,63.0,29.95,NW,311,7.5,14.4,76,0.00,CLR,OVC,0.00,WeatherDisplay:10.37,2013-05-06 06:16:00,
2013-05-06 02:21:00,70.7,62.8,29.95,WNW,287,6.6,15.0,76,0.00,CLR,OVC,0.00,WeatherDisplay:10.37,2013-05-06 06:21:00,
2013-05-06 02:26:00,70.7,62.8,29.94,NW,304,4.7,10.4,76,0.00,CLR,OVC,0.00,WeatherDisplay:10.37,2013-05-06 06:26:00,
2013-05-06 02:31:00,70.7,62.4,29.94,NNW,330,4.4,8.1,75,0.00,CLR,OVC,0.00,WeatherDisplay:10.37,2013-05-06 06:31:00,
2013-05-06 02:36:00,70.8,62.5,29.95,West,267,8.3,17.3,75,0.00,CLR,OVC,0.00,WeatherDisplay:10.37,2013-05-06 06:36:00,
2013-05-06 02:41:00,70.8,62.9,29.94,NW,323,6.7,10.4,76,0.00,CLR,OVC,0.00,WeatherDisplay:10.37,2013-05-06 06:41:00,
2013-05-06 02:46:00,70.7,63.1,29.94,WNW,282,3.7,8.1,77,0.00,CLR,OVC,0.00,WeatherDisplay:10.37,2013-05-06 06:46:00,
2013-05-06 02:51:00,70.8,63.2,29.94,NNW,330,4.2,8.1,77,0.00,CLR,OVC,0.00,WeatherDisplay:10.37,2013-05-06 06:51:00,
2013-05-06 02:56:00,70.7,63.1,29.94,WSW,250,5.1,8.1,77,0.00,CLR,OVC,0.00,WeatherDisplay:10.37,2013-05-06 06:56:00,
2013-05-06 03:01:00,70.9,63.3,29.93,NW,320,4.6,9.2,77,0.00,CLR,OVC,0.00,WeatherDisplay:10.37,2013-05-06 07:01:00,
2013-05-06 03:06:00,70.9,63.3,29.93,West,268,7.5,15.0,77,0.00,CLR,OVC,0.00,WeatherDisplay:10.37,2013-05-06 07:06:00,
2013-05-06 03:11:00,70.9,63.3,29.93,NW,323,7.1,10.4,77,0.00,CLR,OVC,0.00,WeatherDisplay:10.37,2013-05-06 07:11:00,
2013-05-06 03:16:00,71.0,63.1,29.93,NW,311,7.8,13.8,76,0.00,CLR,OVC,0.00,WeatherDisplay:10.37,2013-05-06 07:16:00,
2013-05-06 03:21:00,70.9,62.2,29.93,NW,325,7.0,10.4,74,0.00,CLR,OVC,0.00,WeatherDisplay:10.37,2013-05-06 07:21:00,
2013-05-06 03:26:00,71.0,61.9,29.93,WNW,301,5.1,12.7,73,0.00,CLR,OVC,0.00,WeatherDisplay:10.37,2013-05-06 07:26:00,
2013-05-06 03:31:00,70.9,61.4,29.93,NNW,329,4.5,10.4,72,0.00,CLR,OVC,0.00,WeatherDisplay:10.37,2013-05-06 07:31:00,
2013-05-06 03:36:00,70.7,61.6,29.93,WNW,299,4.6,6.9,73,0.00,CLR,OVC,0.00,WeatherDisplay:10.37,2013-05-06 07:36:00,
2013-05-06 03:41:00,70.7,61.6,29.93,West,278,4.6,10.4,73,0.00,CLR,OVC,0.00,WeatherDisplay:10.37,2013-05-06 07:41:00,
2013-05-06 03:46:00,70.5,61.4,29.93,WNW,302,7.3,12.4,73,0.00,CLR,OVC,0.00,WeatherDisplay:10.37,2013-05-06 07:46:00,
2013-05-06 03:51:00,70.5,61.4,29.93,NW,311,6.5,10.4,73,0.00,CLR,OVC,0.00,WeatherDisplay:10.37,2013-05-06 07:51:00,
2013-05-06 03:56:00,70.6,62.3,29.93,NW,306,8.0,15.0,75,0.00,CLR,OVC,0.00,WeatherDisplay:10.37,2013-05-06 07:56:00,
2013-05-06 04:01:00,70.4,62.5,29.94,West,275,4.5,9.2,76,0.00,CLR,OVC,0.00,WeatherDisplay:10.37,2013-05-06 08:01:00,
2013-05-06 04:06:00,70.2,62.3,29.94,North,350,6.6,10.4,76,0.00,CLR,OVC,0.00,WeatherDisplay:10.37,2013-05-06 08:06:00,
2013-05-06 04:11:00,70.1,61.8,29.94,WNW,284,5.1,10.4,75,0.00,CLR,OVC,0.00,WeatherDisplay:10.37,2013-05-06 08:11:00,
2013-05-06 04:16:00,70.1,62.2,29.94,North,353,5.2,11.5,76,0.00,CLR,OVC,0.00,WeatherDisplay:10.37,2013-05-06 08:16:00,
2013-05-06 04:21:00,70.0,62.1,29.94,NW,305,6.8,13.8,76,0.00,CLR,OVC,0.00,WeatherDisplay:10.37,2013-05-06 08:21:00,
2013-05-06 04:26:00,69.7,62.2,29.95,NNW,337,7.7,12.7,77,0.00,CLR,OVC,0.00,WeatherDisplay:10.37,2013-05-06 08:26:00,
2013-05-06 04:31:00,69.9,61.6,29.95,WNW,294,8.2,13.8,75,0.00,CLR,OVC,0.00,WeatherDisplay:10.37,2013-05-06 08:31:00,
2013-05-06 04:36:00,69.8,61.9,29.95,WNW,296,6.5,11.5,76,0.00,CLR,OVC,0.00,WeatherDisplay:10.37,2013-05-06 08:36:00,
2013-05-06 04:41:00,69.7,61.8,29.95,NNW,328,7.4,15.0,76,0.00,CLR,OVC,0.00,WeatherDisplay:10.37,2013-05-06 08:41:00,
2013-05-06 04:46:00,69.5,61.2,29.95,West,261,5.0,11.5,75,0.00,CLR,OVC,0.00,WeatherDisplay:10.37,2013-05-06 08:46:00,
2013-05-06 04:51:00,69.4,61.5,29.95,North,352,5.5,11.5,76,0.00,CLR,OVC,0.00,WeatherDisplay:10.37,2013-05-06 08:51:00,
2013-05-06 04:56:00,69.3,61.0,29.95,WNW,288,6.3,11.5,75,0.00,CLR,OVC,0.00,WeatherDisplay:10.37,2013-05-06 08:56:00,
2013-05-06 05:01:00,69.3,61.0,29.95,WNW,287,6.4,11.5,75,0.00,CLR,OVC,0.00,WeatherDisplay:10.37,2013-05-06 09:01:00,
2013-05-06 05:06:00,69.1,60.5,29.95,NW,319,5.1,10.4,74,0.00,CLR,OVC,0.00,WeatherDisplay:10.37,2013-05-06 09:06:00,
2013-05-06 05:11:00,69.0,60.4,29.95,NW,311,6.6,12.1,74,0.00,CLR,OVC,0.00,WeatherDisplay:10.37,2013-05-06 09:11:00,
2013-05-06 05:16:00,68.7,60.1,29.95,NNW,337,7.4,11.5,74,0.00,CLR,OVC,0.00,WeatherDisplay:10.37,2013-05-06 09:16:00,
2013-05-06 05:21:00,68.8,60.2,29.95,WNW,294,6.8,12.7,74,0.00,CLR,OVC,0.00,WeatherDisplay:10.37,2013-05-06 09:21:00,
2013-05-06 05:26:00,68.7,59.7,29.95,NW,320,5.8,9.2,73,0.00,CLR,OVC,0.00,WeatherDisplay:10.37,2013-05-06 09:26:00,
2013-05-06 05:31:00,68.7,59.7,29.95,NW,316,6.4,10.5,73,0.00,CLR,OVC,0.00,WeatherDisplay:10.37,2013-05-06 09:31:00,
2013-05-06 05:36:00,68.5,59.9,29.95,NW,315,7.3,12.7,74,0.00,CLR,OVC,0.00,WeatherDisplay:10.37,2013-05-06 09:36:00,
2013-05-06 05:41:00,68.5,59.9,29.95,NW,318,6.0,11.5,74,0.00,CLR,OVC,0.00,WeatherDisplay:10.37,2013-05-06 09:41:00,
2013-05-06 05:46:00,68.4,59.8,29.95,WNW,291,5.3,9.2,74,0.00,CLR,OVC,0.00,WeatherDisplay:10.37,2013-05-06 09:46:00,
2013-05-06 05:51:00,68.5,59.9,29.95,NW,306,6.3,10.4,74,0.00,CLR,OVC,0.00,WeatherDisplay:10.37,2013-05-06 09:51:00,
2013-05-06 05:56:00,68.3,59.7,29.95,NNE,18,5.9,11.5,74,0.00,CLR,OVC,0.00,WeatherDisplay:10.37,2013-05-06 09:56:00,
2013-05-06 06:01:00,68.3,59.7,29.96,NNW,328,6.7,11.5,74,0.00,CLR,OVC,0.00,WeatherDisplay:10.37,2013-05-06 10:01:00,
2013-05-06 06:06:00,68.2,59.6,29.96,NNW,328,5.7,9.2,74,0.00,CLR,OVC,0.00,WeatherDisplay:10.37,2013-05-06 10:06:00,
2013-05-06 06:11:00,68.2,59.6,29.96,WNW,298,7.4,15.7,74,0.00,CLR,OVC,0.00,WeatherDisplay:10.37,2013-05-06 10:11:00,
2013-05-06 06:16:00,68.1,59.5,29.97,NNW,332,6.2,9.2,74,0.00,CLR,OVC,0.00,WeatherDisplay:10.37,2013-05-06 10:16:00,
2013-05-06 06:21:00,68.1,59.1,29.97,NW,304,6.2,12.7,73,0.00,CLR,OVC,0.00,WeatherDisplay:10.37,2013-05-06 10:21:00,
2013-05-06 06:26:00,68.1,59.1,29.97,NW,318,5.7,12.7,73,0.00,CLR,OVC,0.00,WeatherDisplay:10.37,2013-05-06 10:26:00,
2013-05-06 06:31:00,67.9,58.5,29.98,West,277,8.1,13.8,72,0.00,CLR,OVC,0.00,WeatherDisplay:10.37,2013-05-06 10:31:00,
2013-05-06 06:36:00,67.9,58.9,29.98,NW,325,5.0,9.2,73,0.00,CLR,OVC,0.00,WeatherDisplay:10.37,2013-05-06 10:36:00,
2013-05-06 06:41:00,67.9,58.5,29.98,NW,309,7.7,11.5,72,0.00,CLR,OVC,0.00,WeatherDisplay:10.37,2013-05-06 10:41:00,
2013-05-06 06:46:00,67.7,58.3,29.98,NW,306,5.4,10.9,72,0.00,CLR,OVC,0.00,WeatherDisplay:10.37,2013-05-06 10:46:00,
2013-05-06 06:51:00,67.7,58.3,29.99,West,277,5.7,9.2,72,0.00,CLR,OVC,0.00,WeatherDisplay:10.37,2013-05-06 10:51:00,
2013-05-06 06:56:00,67.7,58.3,29.99,NW,318,4.4,6.9,72,0.00,CLR,OVC,0.00,WeatherDisplay:10.37,2013-05-06 10:56:00,
2013-05-06 07:01:00,67.5,57.8,29.99,WNW,287,4.6,13.8,71,0.00,CLR,OVC,0.00,WeatherDisplay:10.37,2013-05-06 11:01:00,
2013-05-06 07:06:00,67.7,58.3,29.99,NNW,336,4.8,10.4,72,0.00,CLR,OVC,0.00,WeatherDisplay:10.37,2013-05-06 11:06:00,
2013-05-06 07:11:00,67.9,58.1,29.99,WNW,291,4.6,6.9,71,0.00,CLR,OVC,0.00,WeatherDisplay:10.37,2013-05-06 11:11:00,
2013-05-06 07:16:00,67.7,57.6,29.99,WSW,253,7.1,11.6,70,0.00,CLR,OVC,0.00,WeatherDisplay:10.37,2013-05-06 11:16:00,
2013-05-06 07:21:00,67.6,57.5,29.99,NNW,336,5.0,12.7,70,0.00,CLR,OVC,0.00,WeatherDisplay:10.37,2013-05-06 11:21:00,
2013-05-06 07:26:00,67.4,56.9,29.99,WNW,298,5.2,13.8,69,0.00,CLR,OVC,0.00,WeatherDisplay:10.37,2013-05-06 11:26:00,
2013-05-06 07:31:00,67.7,57.6,29.99,West,272,4.4,11.5,70,0.00,CLR,OVC,0.00,WeatherDisplay:10.37,2013-05-06 11:31:00,
2013-05-06 07:36:00,67.8,58.1,30.00,WNW,302,4.9,9.2,71,0.00,CLR,OVC,0.00,WeatherDisplay:10.37,2013-05-06 11:36:00,
2013-05-06 07:41:00,68.0,58.6,30.00,North,360,6.8,10.4,72,0.00,CLR,OVC,0.00,WeatherDisplay:10.37,2013-05-06 11:41:00,
2013-05-06 07:46:00,67.9,58.5,30.00,North,360,4.4,6.9,72,0.00,CLR,OVC,0.00,WeatherDisplay:10.37,2013-05-06 11:46:00,
2013-05-06 07:51:00,67.9,58.5,30.00,NW,313,3.8,6.9,72,0.00,CLR,OVC,0.00,WeatherDisplay:10.37,2013-05-06 11:51:00,
2013-05-06 07:56:00,68.1,58.7,30.00,WNW,282,7.8,11.4,72,0.00,CLR,OVC,0.00,WeatherDisplay:10.37,2013-05-06 11:56:00,
2013-05-06 08:01:00,67.9,58.5,30.00,NW,318,3.7,6.9,72,0.00,CLR,OVC,0.00,WeatherDisplay:10.37,2013-05-06 12:01:00,
2013-05-06 08:06:00,68.1,58.7,30.00,NW,313,1.5,8.1,72,0.00,CLR,OVC,0.00,WeatherDisplay:10.37,2013-05-06 12:06:00,
2013-05-06 08:11:00,68.4,58.2,30.00,NW,309,5.7,9.7,70,0.00,CLR,OVC,0.00,WeatherDisplay:10.37,2013-05-06 12:11:00,
2013-05-06 08:16:00,68.5,58.3,30.00,NW,313,5.3,8.8,70,0.00,CLR,OVC,0.00,WeatherDisplay:10.37,2013-05-06 12:16:00,
2013-05-06 08:21:00,68.4,58.2,30.00,NW,316,5.3,9.2,70,0.00,CLR,OVC,0.00,WeatherDisplay:10.37,2013-05-06 12:21:00,
2013-05-06 08:26:00,68.8,57.8,30.01,NW,320,3.7,6.9,68,0.00,CLR,OVC,0.00,WeatherDisplay:10.37,2013-05-06 12:26:00,
2013-05-06 08:31:00,69.0,58.4,30.01,WNW,289,7.1,13.8,69,0.00,CLR,OVC,0.00,WeatherDisplay:10.37,2013-05-06 12:31:00,
2013-05-06 08:36:00,69.4,58.0,30.01,North,8,4.6,6.9,67,0.00,CLR,OVC,0.00,WeatherDisplay:10.37,2013-05-06 12:36:00,
2013-05-06 08:41:00,69.5,58.1,30.01,NW,319,3.0,6.9,67,0.00,CLR,OVC,0.00,WeatherDisplay:10.37,2013-05-06 12:41:00,
2013-05-06 08:46:00,69.7,58.7,30.01,North,352,5.1,8.1,68,0.00,CLR,OVC,0.00,WeatherDisplay:10.37,2013-05-06 12:46:00,
2013-05-06 08:51:00,69.7,58.3,30.01,NW,309,5.2,9.2,67,0.00,CLR,OVC,0.00,WeatherDisplay:10.37,2013-05-06 12:51:00,
2013-05-06 08:56:00,69.8,58.3,30.02,WNW,295,5.0,6.9,67,0.00,CLR,OVC,0.00,WeatherDisplay:10.37,2013-05-06 12:56:00,
2013-05-06 09:01:00,69.7,58.3,30.02,NW,322,4.1,6.9,67,0.00,CLR,OVC,0.00,WeatherDisplay:10.37,2013-05-06 13:01:00,
2013-05-06 09:06:00,70.0,58.5,30.02,North,360,4.1,7.1,67,0.00,CLR,OVC,0.00,WeatherDisplay:10.37,2013-05-06 13:06:00,
2013-05-06 09:11:00,70.3,58.4,30.02,NNE,16,2.8,6.9,66,0.00,CLR,OVC,0.00,WeatherDisplay:10.37,2013-05-06 13:11:00,
2013-05-06 09:16:00,70.5,58.2,30.02,NW,319,3.2,8.6,65,0.00,CLR,OVC,0.00,WeatherDisplay:10.37,2013-05-06 13:16:00,
2013-05-06 09:21:00,70.6,57.8,30.03,NW,311,5.1,9.2,64,0.00,CLR,OVC,0.00,WeatherDisplay:10.37,2013-05-06 13:21:00,
2013-05-06 09:26:00,70.7,57.9,30.03,WSW,254,6.7,12.7,64,0.00,CLR,OVC,0.00,WeatherDisplay:10.37,2013-05-06 13:26:00,
2013-05-06 09:31:00,70.9,58.1,30.03,WNW,282,6.7,11.5,64,0.00,CLR,OVC,0.00,WeatherDisplay:10.37,2013-05-06 13:31:00,
2013-05-06 09:36:00,71.0,58.6,30.03,North,360,9.0,12.7,65,0.00,CLR,OVC,0.00,WeatherDisplay:10.37,2013-05-06 13:36:00,
2013-05-06 09:41:00,71.2,58.4,30.03,NW,326,4.7,9.2,64,0.00,CLR,OVC,0.00,WeatherDisplay:10.37,2013-05-06 13:41:00,
2013-05-06 09:46:00,71.4,58.6,30.03,NNW,339,7.6,12.7,64,0.00,CLR,OVC,0.00,WeatherDisplay:10.37,2013-05-06 13:46:00,
2013-05-06 09:51:00,71.3,58.1,30.03,NW,323,4.8,10.7,63,0.00,CLR,OVC,0.00,WeatherDisplay:10.37,2013-05-06 13:51:00,
2013-05-06 09:56:00,71.3,57.6,30.03,NW,315,5.9,8.5,62,0.00,CLR,OVC,0.00,WeatherDisplay:10.37,2013-05-06 13:56:00,
2013-05-06 10:01:00,71.5,57.8,30.03,NNW,336,6.2,8.1,62,0.00,CLR,OVC,0.00,WeatherDisplay:10.37,2013-05-06 14:01:00,
2013-05-06 10:06:00,71.6,58.3,30.03,North,3,6.3,10.4,63,0.00,CLR,OVC,0.00,WeatherDisplay:10.37,2013-05-06 14:06:00,
2013-05-06 10:11:00,71.8,58.1,30.03,NW,323,5.7,9.2,62,0.00,CLR,OVC,0.00,WeatherDisplay:10.37,2013-05-06 14:11:00,
2013-05-06 10:16:00,71.9,57.7,30.03,NNE,24,4.9,11.5,61,0.00,CLR,OVC,0.00,WeatherDisplay:10.37,2013-05-06 14:16:00,
2013-05-06 10:21:00,71.9,58.2,30.03,NNW,328,3.4,5.5,62,0.00,CLR,OVC,0.00,WeatherDisplay:10.37,2013-05-06 14:21:00,
2013-05-06 10:26:00,72.3,58.1,30.03,WNW,292,5.9,12.7,61,0.00,CLR,OVC,0.00,WeatherDisplay:10.37,2013-05-06 14:26:00,
2013-05-06 10:31:00,72.3,57.6,30.03,NE,45,3.0,6.9,60,0.00,CLR,OVC,0.00,WeatherDisplay:10.37,2013-05-06 14:31:00,
2013-05-06 10:36:00,72.8,58.6,30.03,North,1,6.6,10.4,61,0.00,CLR,OVC,0.00,WeatherDisplay:10.37,2013-05-06 14:36:00,
2013-05-06 10:41:00,72.6,57.4,30.04,NW,326,8.0,9.2,59,0.00,CLR,OVC,0.00,WeatherDisplay:10.37,2013-05-06 14:41:00,
2013-05-06 10:46:00,72.6,57.4,30.04,WNW,301,7.6,10.4,59,0.00,CLR,OVC,0.00,WeatherDisplay:10.37,2013-05-06 14:46:00,
2013-05-06 10:51:00,72.2,57.5,30.04,NW,322,8.1,13.8,60,0.00,CLR,OVC,0.00,WeatherDisplay:10.37,2013-05-06 14:51:00,
2013-05-06 10:56:00,72.6,57.9,30.04,NNW,333,7.2,10.4,60,0.00,CLR,OVC,0.00,WeatherDisplay:10.37,2013-05-06 14:56:00,
2013-05-06 11:01:00,72.9,57.3,30.04,WNW,299,3.2,5.8,58,0.00,CLR,OVC,0.00,WeatherDisplay:10.37,2013-05-06 15:01:00,
2013-05-06 11:06:00,73.1,57.4,30.04,NW,318,5.9,8.1,58,0.00,CLR,OVC,0.00,WeatherDisplay:10.37,2013-05-06 15:06:00,
2013-05-06 11:11:00,73.5,57.3,30.04,West,272,1.9,8.1,57,0.00,CLR,OVC,0.00,WeatherDisplay:10.37,2013-05-06 15:11:00,
2013-05-06 11:16:00,73.6,58.4,30.05,North,360,3.6,8.1,59,0.00,CLR,OVC,0.00,WeatherDisplay:10.37,2013-05-06 15:16:00,
2013-05-06 11:21:00,73.7,57.5,30.05,WNW,302,6.8,10.4,57,0.00,CLR,OVC,0.00,WeatherDisplay:10.37,2013-05-06 15:21:00,
2013-05-06 11:26:00,74.0,57.8,30.04,NW,304,6.8,11.5,57,0.00,CLR,OVC,0.00,WeatherDisplay:10.37,2013-05-06 15:26:00,
2013-05-06 11:31:00,74.6,59.3,30.05,North,6,5.3,8.1,59,0.00,CLR,OVC,0.00,WeatherDisplay:10.37,2013-05-06 15:31:00,
2013-05-06 11:36:00,74.5,58.3,30.05,WNW,296,4.9,10.4,57,0.00,CLR,OVC,0.00,WeatherDisplay:10.37,2013-05-06 15:36:00,
2013-05-06 11:41:00,74.1,58.4,30.04,NNW,336,4.2,8.1,58,0.00,CLR,OVC,0.00,WeatherDisplay:10.37,2013-05-06 15:41:00,
2013-05-06 11:46:00,74.2,58.0,30.05,NW,320,7.2,9.2,57,0.00,CLR,OVC,0.00,WeatherDisplay:10.37,2013-05-06 15:46:00,
2013-05-06 11:51:00,74.1,58.4,30.05,NW,322,6.5,11.5,58,0.00,CLR,OVC,0.00,WeatherDisplay:10.37,2013-05-06 15:51:00,
2013-05-06 11:56:00,73.4,56.7,30.05,West,260,7.0,9.2,56,0.00,CLR,OVC,0.00,WeatherDisplay:10.37,2013-05-06 15:56:00,
2013-05-06 12:01:00,73.9,58.2,30.04,NNW,347,6.5,9.2,58,0.00,CLR,OVC,0.00,WeatherDisplay:10.37,2013-05-06 16:01:00,
2013-05-06 12:06:00,74.4,58.2,30.04,NW,316,7.5,11.5,57,0.00,CLR,OVC,0.00,WeatherDisplay:10.37,2013-05-06 16:06:00,
2013-05-06 12:11:00,74.9,58.1,30.05,North,11,6.9,9.2,56,0.00,CLR,OVC,0.00,WeatherDisplay:10.37,2013-05-06 16:11:00,
2013-05-06 12:16:00,75.3,58.5,30.05,NW,316,5.4,9.2,56,0.00,CLR,OVC,0.00,WeatherDisplay:10.37,2013-05-06 16:16:00,
2013-05-06 12:21:00,75.2,58.9,30.04,NNE,18,6.1,9.2,57,0.00,CLR,OVC,0.00,WeatherDisplay:10.37,2013-05-06 16:21:00,
2013-05-06 12:26:00,75.9,59.1,30.04,WNW,294,4.0,9.2,56,0.00,CLR,OVC,0.00,WeatherDisplay:10.37,2013-05-06 16:26:00,
2013-05-06 12:31:00,75.8,58.0,30.05,NW,316,6.2,11.5,54,0.00,CLR,OVC,0.00,WeatherDisplay:10.37,2013-05-06 16:31:00,
2013-05-06 12:36:00,75.8,59.0,30.05,NNW,336,6.2,9.4,56,0.00,CLR,OVC,0.00,WeatherDisplay:10.37,2013-05-06 16:36:00,
2013-05-06 12:41:00,74.4,58.2,30.04,WNW,292,3.4,7.0,57,0.00,CLR,OVC,0.00,WeatherDisplay:10.37,2013-05-06 16:41:00,
2013-05-06 12:46:00,75.0,58.2,30.05,North,3,5.0,9.2,56,0.00,CLR,OVC,0.00,WeatherDisplay:10.37,2013-05-06 16:46:00,
2013-05-06 12:51:00,75.1,57.8,30.04,NNE,18,7.9,15.0,55,0.00,CLR,OVC,0.00,WeatherDisplay:10.37,2013-05-06 16:51:00,
2013-05-06 12:56:00,75.5,58.7,30.04,North,360,6.4,10.4,56,0.00,CLR,OVC,0.00,WeatherDisplay:10.37,2013-05-06 16:56:00,
2013-05-06 13:01:00,75.7,58.4,30.04,North,6,6.9,11.5,55,0.00,CLR,OVC,0.00,WeatherDisplay:10.37,2013-05-06 17:01:00,
2013-05-06 13:06:00,75.7,58.4,30.04,North,0,6.7,8.1,55,0.00,CLR,OVC,0.00,WeatherDisplay:10.37,2013-05-06 17:06:00,
2013-05-06 13:11:00,75.1,58.3,30.04,NNW,332,6.2,6.9,56,0.00,CLR,OVC,0.00,WeatherDisplay:10.37,2013-05-06 17:11:00,
2013-05-06 13:16:00,76.0,58.7,30.04,NW,315,7.9,10.4,55,0.00,CLR,OVC,0.00,WeatherDisplay:10.37,2013-05-06 17:16:00,
2013-05-06 13:21:00,76.7,58.3,30.04,NW,322,8.4,13.8,53,0.00,CLR,OVC,0.00,WeatherDisplay:10.37,2013-05-06 17:21:00,
2013-05-06 13:26:00,76.8,57.8,30.03,NNW,339,8.1,16.1,52,0.00,CLR,OVC,0.00,WeatherDisplay:10.37,2013-05-06 17:26:00,
2013-05-06 13:31:00,77.2,58.2,30.03,NW,319,8.5,13.8,52,0.00,CLR,OVC,0.00,WeatherDisplay:10.37,2013-05-06 17:31:00,
2013-05-06 13:36:00,76.4,57.5,30.03,NNE,14,8.3,12.7,52,0.00,CLR,OVC,0.00,WeatherDisplay:10.37,2013-05-06 17:36:00,
2013-05-06 13:41:00,77.2,58.2,30.03,NNW,340,4.6,9.2,52,0.00,CLR,OVC,0.00,WeatherDisplay:10.37,2013-05-06 17:41:00,
2013-05-06 13:46:00,77.1,57.0,30.03,East,86,7.1,12.7,50,0.00,CLR,OVC,0.00,WeatherDisplay:10.37,2013-05-06 17:46:00,
2013-05-06 13:51:00,77.5,57.4,30.03,NW,313,3.7,10.0,50,0.00,CLR,OVC,0.00,WeatherDisplay:10.37,2013-05-06 17:51:00,
2013-05-06 13:56:00,77.4,56.7,30.03,WNW,295,6.7,16.1,49,0.00,CLR,OVC,0.00,WeatherDisplay:10.37,2013-05-06 17:56:00,
2013-05-06 14:01:00,76.7,57.2,30.03,NW,306,6.7,13.8,51,0.00,CLR,OVC,0.00,WeatherDisplay:10.37,2013-05-06 18:01:00,
2013-05-06 14:06:00,77.2,57.7,30.03,NNW,333,8.4,13.8,51,0.00,CLR,OVC,0.00,WeatherDisplay:10.37,2013-05-06 18:06:00,
2013-05-06 14:11:00,77.3,56.6,30.03,SSW,209,2.7,8.1,49,0.00,CLR,OVC,0.00,WeatherDisplay:10.37,2013-05-06 18:11:00,
2013-05-06 14:16:00,77.2,58.2,30.03,North,360,5.7,10.4,52,0.00,CLR,OVC,0.00,WeatherDisplay:10.37,2013-05-06 18:16:00,
2013-05-06 14:21:00,77.1,57.0,30.03,NNW,346,6.1,9.2,50,0.00,CLR,OVC,0.00,WeatherDisplay:10.37,2013-05-06 18:21:00,
2013-05-06 14:26:00,77.9,57.2,30.03,NW,312,3.9,8.1,49,0.00,CLR,OVC,0.00,WeatherDisplay:10.37,2013-05-06 18:26:00,
2013-05-06 14:31:00,75.0,55.1,30.03,WNW,289,6.8,11.5,50,0.00,CLR,OVC,0.00,WeatherDisplay:10.37,2013-05-06 18:31:00,
2013-05-06 14:36:00,75.6,57.3,30.03,WNW,294,2.6,9.2,53,0.00,CLR,OVC,0.00,WeatherDisplay:10.37,2013-05-06 18:36:00,
2013-05-06 14:41:00,76.1,56.1,30.03,West,277,6.7,9.2,50,0.00,CLR,OVC,0.00,WeatherDisplay:10.37,2013-05-06 18:41:00,
2013-05-06 14:46:00,76.7,58.3,30.02,WSW,256,6.0,8.1,53,0.00,CLR,OVC,0.00,WeatherDisplay:10.37,2013-05-06 18:46:00,
2013-05-06 14:51:00,76.0,55.5,30.02,West,270,5.6,11.5,49,0.00,CLR,OVC,0.00,WeatherDisplay:10.37,2013-05-06 18:51:00,
2013-05-06 14:56:00,76.1,56.1,30.02,WNW,299,6.2,9.2,50,0.00,CLR,OVC,0.00,WeatherDisplay:10.37,2013-05-06 18:56:00,
2013-05-06 15:01:00,75.6,57.3,30.02,NNW,332,2.9,4.6,53,0.00,CLR,OVC,0.00,WeatherDisplay:10.37,2013-05-06 19:01:00,
2013-05-06 15:06:00,75.2,56.9,30.02,NNE,30,5.2,8.1,53,0.00,CLR,OVC,0.00,WeatherDisplay:10.37,2013-05-06 19:06:00,
2013-05-06 15:11:00,76.6,56.6,30.01,NW,319,5.5,6.9,50,0.00,CLR,OVC,0.00,WeatherDisplay:10.37,2013-05-06 19:11:00,
2013-05-06 15:16:00,78.2,56.9,30.01,NW,319,10.3,15.0,48,0.00,CLR,OVC,0.00,WeatherDisplay:10.37,2013-05-06 19:16:00,
2013-05-06 15:21:00,79.3,57.9,30.01,NNW,346,4.9,6.9,48,0.00,CLR,OVC,0.00,WeatherDisplay:10.37,2013-05-06 19:21:00,
2013-05-06 15:26:00,79.9,57.3,30.01,NW,311,4.5,8.1,46,0.00,CLR,OVC,0.00,WeatherDisplay:10.37,2013-05-06 19:26:00,
2013-05-06 15:31:00,78.4,55.9,30.01,NNW,343,5.9,9.2,46,0.00,CLR,OVC,0.00,WeatherDisplay:10.37,2013-05-06 19:31:00,
2013-05-06 15:36:00,76.5,57.6,30.01,WNW,299,5.1,7.6,52,0.00,CLR,OVC,0.00,WeatherDisplay:10.37,2013-05-06 19:36:00,
2013-05-06 15:41:00,78.4,58.2,30.01,NW,318,7.0,11.5,50,0.00,CLR,OVC,0.00,WeatherDisplay:10.37,2013-05-06 19:41:00,
2013-05-06 15:46:00,77.9,57.2,30.00,NNW,333,2.1,9.2,49,0.00,CLR,OVC,0.00,WeatherDisplay:10.37,2013-05-06 19:46:00,
2013-05-06 15:51:00,77.9,57.2,30.00,NW,322,6.8,11.5,49,0.00,CLR,OVC,0.00,WeatherDisplay:10.37,2013-05-06 19:51:00,
2013-05-06 15:56:00,78.2,56.9,30.00,NNW,330,0.8,6.9,48,0.00,CLR,OVC,0.00,WeatherDisplay:10.37,2013-05-06 19:56:00,
2013-05-06 16:01:00,78.1,56.2,30.00,West,265,8.9,11.5,47,0.00,CLR,OVC,0.00,WeatherDisplay:10.37,2013-05-06 20:01:00,
2013-05-06 16:06:00,78.0,57.3,30.00,NNE,25,4.2,6.9,49,0.00,CLR,OVC,0.00,WeatherDisplay:10.37,2013-05-06 20:06:00,
2013-05-06 16:11:00,78.0,57.3,30.00,NE,45,5.1,8.1,49,0.00,CLR,OVC,0.00,WeatherDisplay:10.37,2013-05-06 20:11:00,
2013-05-06 16:16:00,78.0,56.7,29.99,NNW,329,6.7,11.5,48,0.00,CLR,OVC,0.00,WeatherDisplay:10.37,2013-05-06 20:16:00,
2013-05-06 16:21:00,78.3,56.4,29.99,NW,304,4.8,6.9,47,0.00,CLR,OVC,0.00,WeatherDisplay:10.37,2013-05-06 20:21:00,
2013-05-06 16:26:00,78.1,55.6,29.99,WNW,284,6.6,8.1,46,0.00,CLR,OVC,0.00,WeatherDisplay:10.37,2013-05-06 20:26:00,
2013-05-06 16:31:00,77.1,57.0,29.99,NW,320,5.9,10.4,50,0.00,CLR,OVC,0.00,WeatherDisplay:10.37,2013-05-06 20:31:00,
2013-05-06 16:36:00,78.7,57.9,29.99,NW,316,6.2,9.0,49,0.00,CLR,OVC,0.00,WeatherDisplay:10.37,2013-05-06 20:36:00,
2013-05-06 16:41:00,78.7,56.2,29.99,West,274,7.8,12.7,46,0.00,CLR,OVC,0.00,WeatherDisplay:10.37,2013-05-06 20:41:00,
2013-05-06 16:46:00,75.9,56.5,29.99,West,270,5.0,8.1,51,0.00,CLR,OVC,0.00,WeatherDisplay:10.37,2013-05-06 20:46:00,
2013-05-06 16:51:00,77.0,55.8,29.99,WNW,296,4.3,8.1,48,0.00,CLR,OVC,0.00,WeatherDisplay:10.37,2013-05-06 20:51:00,
2013-05-06 16:56:00,75.2,56.9,29.99,NW,315,4.7,9.2,53,0.00,CLR,OVC,0.00,WeatherDisplay:10.37,2013-05-06 20:56:00,
2013-05-06 17:01:00,77.0,55.8,29.99,NW,319,5.3,8.1,48,0.00,CLR,OVC,0.00,WeatherDisplay:10.37,2013-05-06 21:01:00,
2013-05-06 17:06:00,77.7,56.4,29.99,WNW,292,4.4,9.2,48,0.00,CLR,OVC,0.00,WeatherDisplay:10.37,2013-05-06 21:06:00,
2013-05-06 17:11:00,77.9,56.6,29.99,West,271,3.8,8.1,48,0.00,CLR,OVC,0.00,WeatherDisplay:10.37,2013-05-06 21:11:00,
2013-05-06 17:16:00,77.7,55.9,29.99,WNW,302,4.9,9.7,47,0.00,CLR,OVC,0.00,WeatherDisplay:10.37,2013-05-06 21:16:00,
2013-05-06 17:21:00,76.2,57.3,29.99,NW,315,6.3,10.4,52,0.00,CLR,OVC,0.00,WeatherDisplay:10.37,2013-05-06 21:21:00,
2013-05-06 17:26:00,77.5,56.3,29.99,NW,319,4.8,6.7,48,0.00,CLR,OVC,0.00,WeatherDisplay:10.37,2013-05-06 21:26:00,
2013-05-06 17:31:00,76.4,57.5,29.99,WNW,285,5.9,10.4,52,0.00,CLR,OVC,0.00,WeatherDisplay:10.37,2013-05-06 21:31:00,
2013-05-06 17:36:00,77.2,56.6,29.99,NW,304,4.9,11.5,49,0.00,CLR,OVC,0.00,WeatherDisplay:10.37,2013-05-06 21:36:00,
2013-05-06 17:41:00,78.3,57.0,29.99,NW,322,5.7,12.7,48,0.00,CLR,OVC,0.00,WeatherDisplay:10.37,2013-05-06 21:41:00,
2013-05-06 17:46:00,79.2,57.2,29.99,NNW,347,5.2,9.2,47,0.00,CLR,OVC,0.00,WeatherDisplay:10.37,2013-05-06 21:46:00,
2013-05-06 17:51:00,77.8,56.5,29.99,WNW,284,5.1,11.5,48,0.00,CLR,OVC,0.00,WeatherDisplay:10.37,2013-05-06 21:51:00,
2013-05-06 17:56:00,75.7,56.8,29.99,NW,311,3.8,9.2,52,0.00,CLR,OVC,0.00,WeatherDisplay:10.37,2013-05-06 21:56:00,
2013-05-06 18:01:00,76.2,57.3,29.98,North,1,3.4,6.9,52,0.00,CLR,OVC,0.00,WeatherDisplay:10.37,2013-05-06 22:01:00,
2013-05-06 18:06:00,76.9,56.8,29.98,NW,326,8.1,11.5,50,0.00,CLR,OVC,0.00,WeatherDisplay:10.37,2013-05-06 22:06:00,
2013-05-06 18:11:00,77.9,56.6,29.98,NW,316,3.3,10.4,48,0.00,CLR,OVC,0.00,WeatherDisplay:10.37,2013-05-06 22:11:00,
2013-05-06 18:16:00,77.5,57.4,29.98,West,265,1.1,5.8,50,0.00,CLR,OVC,0.00,WeatherDisplay:10.37,2013-05-06 22:16:00,
2013-05-06 18:21:00,76.4,57.5,29.98,NW,305,5.3,9.2,52,0.00,CLR,OVC,0.00,WeatherDisplay:10.37,2013-05-06 22:21:00,
2013-05-06 18:26:00,76.6,57.7,29.98,West,270,4.0,6.9,52,0.00,CLR,OVC,0.00,WeatherDisplay:10.37,2013-05-06 22:26:00,
2013-05-06 18:31:00,75.3,57.5,29.98,WNW,302,4.7,8.1,54,0.00,CLR,OVC,0.00,WeatherDisplay:10.37,2013-05-06 22:31:00,
2013-05-06 18:36:00,76.2,57.8,29.98,WNW,301,5.8,8.6,53,0.00,CLR,OVC,0.00,WeatherDisplay:10.37,2013-05-06 22:36:00,
2013-05-06 18:41:00,75.4,57.6,29.98,NNE,28,5.8,10.4,54,0.00,CLR,OVC,0.00,WeatherDisplay:10.37,2013-05-06 22:41:00,
2013-05-06 18:46:00,75.9,57.5,29.98,NW,322,3.2,4.8,53,0.00,CLR,OVC,0.00,WeatherDisplay:10.37,2013-05-06 22:46:00,
2013-05-06 18:51:00,75.7,57.9,29.98,NNW,335,6.3,6.9,54,0.00,CLR,OVC,0.00,WeatherDisplay:10.37,2013-05-06 22:51:00,
2013-05-06 18:56:00,75.7,58.4,29.98,WNW,302,3.4,8.1,55,0.00,CLR,OVC,0.00,WeatherDisplay:10.37,2013-05-06 22:56:00,
2013-05-06 19:01:00,75.0,57.7,29.98,NW,315,3.8,8.1,55,0.00,CLR,OVC,0.00,WeatherDisplay:10.37,2013-05-06 23:01:00,
2013-05-06 19:06:00,73.5,57.8,29.98,North,10,3.5,8.1,58,0.00,CLR,OVC,0.00,WeatherDisplay:10.37,2013-05-06 23:06:00,
2013-05-06 19:11:00,73.3,57.6,29.98,NW,326,5.7,10.4,58,0.00,CLR,OVC,0.00,WeatherDisplay:10.37,2013-05-06 23:11:00,
2013-05-06 19:16:00,73.1,57.4,29.98,NW,312,5.1,6.9,58,0.00,CLR,OVC,0.00,WeatherDisplay:10.37,2013-05-06 23:16:00,
2013-05-06 19:21:00,73.0,57.3,29.98,NNW,346,5.1,8.1,58,0.00,CLR,OVC,0.00,WeatherDisplay:10.37,2013-05-06 23:21:00,
2013-05-06 19:26:00,72.7,57.5,29.99,NW,313,4.8,7.1,59,0.00,CLR,OVC,0.00,WeatherDisplay:10.37,2013-05-06 23:26:00,
2013-05-06 19:31:00,72.1,57.4,29.99,NW,305,5.4,6.9,60,0.00,CLR,OVC,0.00,WeatherDisplay:10.37,2013-05-06 23:31:00,
2013-05-06 19:36:00,71.8,57.6,29.99,NNE,28,4.5,9.2,61,0.00,CLR,OVC,0.00,WeatherDisplay:10.37,2013-05-06 23:36:00,
2013-05-06 19:41:00,71.6,57.4,29.99,NW,316,4.5,9.2,61,0.00,CLR,OVC,0.00,WeatherDisplay:10.37,2013-05-06 23:41:00,
2013-05-06 19:46:00,71.7,58.0,29.99,NNW,344,1.5,3.5,62,0.00,CLR,OVC,0.00,WeatherDisplay:10.37,2013-05-06 23:46:00,
2013-05-06 19:51:00,71.5,57.8,29.99,NNE,17,3.1,5.8,62,0.00,CLR,OVC,0.00,WeatherDisplay:10.37,2013-05-06 23:51:00,
2013-05-06 19:56:00,71.5,57.8,29.99,WNW,302,1.7,3.0,62,0.00,CLR,OVC,0.00,WeatherDisplay:10.37,2013-05-06 23:56:00,
2013-05-06 20:01:00,71.2,57.5,30.00,NW,308,4.3,8.1,62,0.00,CLR,OVC,0.00,WeatherDisplay:10.37,2013-05-07 00:01:00,
2013-05-06 20:06:00,70.8,57.1,30.00,NNW,340,2.7,3.5,62,0.00,CLR,OVC,0.00,WeatherDisplay:10.37,2013-05-07 00:06:00,
2013-05-06 20:11:00,70.6,56.9,30.00,WNW,302,1.6,2.5,62,0.00,CLR,OVC,0.00,WeatherDisplay:10.37,2013-05-07 00:11:00,
2013-05-06 20:16:00,70.7,57.5,30.00,WNW,298,3.3,5.8,63,0.00,CLR,OVC,0.00,WeatherDisplay:10.37,2013-05-07 00:16:00,
2013-05-06 20:21:00,70.7,57.5,30.00,NW,322,3.6,4.6,63,0.00,CLR,OVC,0.00,WeatherDisplay:10.37,2013-05-07 00:21:00,
2013-05-06 20:26:00,70.5,57.3,30.00,NNW,346,2.6,4.6,63,0.00,CLR,OVC,0.00,WeatherDisplay:10.37,2013-05-07 00:26:00,
2013-05-06 20:31:00,70.2,57.0,30.00,NW,308,2.8,5.8,63,0.00,CLR,OVC,0.00,WeatherDisplay:10.37,2013-05-07 00:31:00,
2013-05-06 20:36:00,69.7,57.0,30.00,WNW,299,0.3,2.3,64,0.00,CLR,OVC,0.00,WeatherDisplay:10.37,2013-05-07 00:36:00,
2013-05-06 20:41:00,69.6,57.3,30.00,WNW,289,2.5,3.5,65,0.00,CLR,OVC,0.00,WeatherDisplay:10.37,2013-05-07 00:41:00,
2013-05-06 20:46:00,69.5,57.2,30.01,NW,322,1.5,3.5,65,0.00,CLR,OVC,0.00,WeatherDisplay:10.37,2013-05-07 00:46:00,
2013-05-06 20:51:00,69.5,57.2,30.01,NW,308,0.0,0.0,65,0.00,CLR,OVC,0.00,WeatherDisplay:10.37,2013-05-07 00:51:00,
2013-05-06 20:56:00,69.5,57.2,30.01,NW,308,0.0,0.0,65,0.00,CLR,OVC,0.00,WeatherDisplay:10.37,2013-05-07 00:56:00,
2013-05-06 21:01:00,69.6,57.3,30.01,NW,320,1.3,1.3,65,0.00,CLR,OVC,0.00,WeatherDisplay:10.37,2013-05-07 01:01:00,
2013-05-06 21:06:00,69.7,57.4,30.01,NW,316,0.5,3.5,65,0.00,CLR,OVC,0.00,WeatherDisplay:10.37,2013-05-07 01:06:00,
2013-05-06 21:11:00,69.5,57.2,30.02,WNW,296,2.2,3.5,65,0.00,CLR,OVC,0.00,WeatherDisplay:10.37,2013-05-07 01:11:00,
2013-05-06 21:16:00,69.4,57.1,30.02,NNW,333,2.9,4.6,65,0.00,CLR,OVC,0.00,WeatherDisplay:10.37,2013-05-07 01:16:00,
2013-05-06 21:21:00,69.5,57.2,30.02,West,275,3.3,6.9,65,0.00,CLR,OVC,0.00,WeatherDisplay:10.37,2013-05-07 01:21:00,
2013-05-06 21:26:00,69.2,56.9,30.02,NW,315,3.1,4.6,65,0.00,CLR,OVC,0.00,WeatherDisplay:10.37,2013-05-07 01:26:00,
2013-05-06 21:31:00,69.1,56.8,30.03,NW,320,4.9,8.1,65,0.00,CLR,OVC,0.00,WeatherDisplay:10.37,2013-05-07 01:31:00,
2013-05-06 21:36:00,68.8,56.6,30.03,WNW,282,2.7,3.7,65,0.00,CLR,OVC,0.00,WeatherDisplay:10.37,2013-05-07 01:36:00,
2013-05-06 21:41:00,68.3,56.9,30.03,WNW,291,3.1,4.6,67,0.00,CLR,OVC,0.00,WeatherDisplay:10.37,2013-05-07 01:41:00,
2013-05-06 21:46:00,68.5,57.1,30.03,WNW,302,1.2,4.6,67,0.00,CLR,OVC,0.00,WeatherDisplay:10.37,2013-05-07 01:46:00,
2013-05-06 21:51:00,68.2,57.2,30.03,NNW,347,0.8,1.1,68,0.00,CLR,OVC,0.00,WeatherDisplay:10.37,2013-05-07 01:51:00,
2013-05-06 21:56:00,68.0,57.4,30.03,NW,308,2.0,3.5,69,0.00,CLR,OVC,0.00,WeatherDisplay:10.37,2013-05-07 01:56:00,
2013-05-06 22:01:00,68.2,57.2,30.03,NW,306,3.3,4.7,68,0.00,CLR,OVC,0.00,WeatherDisplay:10.37,2013-05-07 02:01:00,
2013-05-06 22:06:00,68.1,57.1,30.04,WNW,284,3.0,5.0,68,0.00,CLR,OVC,0.00,WeatherDisplay:10.37,2013-05-07 02:06:00,
2013-05-06 22:11:00,67.8,57.3,30.04,NW,306,3.3,9.2,69,0.00,CLR,OVC,0.00,WeatherDisplay:10.37,2013-05-07 02:11:00,
2013-05-06 22:16:00,67.7,57.2,30.04,West,275,4.4,8.3,69,0.00,CLR,OVC,0.00,WeatherDisplay:10.37,2013-05-07 02:16:00,
2013-05-06 22:21:00,67.8,57.3,30.04,WNW,284,2.6,5.4,69,0.00,CLR,OVC,0.00,WeatherDisplay:10.37,2013-05-07 02:21:00,
2013-05-06 22:26:00,67.4,57.3,30.05,WNW,301,4.2,8.1,70,0.00,CLR,OVC,0.00,WeatherDisplay:10.37,2013-05-07 02:26:00,
2013-05-06 22:31:00,67.8,57.7,30.05,WNW,289,2.4,6.9,70,0.00,CLR,OVC,0.00,WeatherDisplay:10.37,2013-05-07 02:31:00,
2013-05-06 22:36:00,67.8,57.7,30.04,WNW,298,3.6,6.9,70,0.00,CLR,OVC,0.00,WeatherDisplay:10.37,2013-05-07 02:36:00,
2013-05-06 22:41:00,68.0,57.8,30.04,NW,316,0.9,3.8,70,0.00,CLR,OVC,0.00,WeatherDisplay:10.37,2013-05-07 02:41:00,
2013-05-06 22:46:00,68.0,57.4,30.04,NW,315,3.2,8.1,69,0.00,CLR,OVC,0.00,WeatherDisplay:10.37,2013-05-07 02:46:00,
2013-05-06 22:51:00,67.9,57.4,30.04,WNW,301,1.8,3.5,69,0.00,CLR,OVC,0.00,WeatherDisplay:10.37,2013-05-07 02:51:00,
2013-05-06 22:56:00,68.0,57.8,30.05,NW,315,2.7,4.6,70,0.00,CLR,OVC,0.00,WeatherDisplay:10.37,2013-05-07 02:56:00,
2013-05-06 23:01:00,67.7,57.6,30.05,West,277,4.5,6.9,70,0.00,CLR,OVC,0.00,WeatherDisplay:10.37,2013-05-07 03:01:00,
2013-05-06 23:06:00,67.7,57.2,30.04,WNW,298,2.7,4.6,69,0.00,CLR,OVC,0.00,WeatherDisplay:10.37,2013-05-07 03:06:00,
2013-05-06 23:11:00,67.6,57.1,30.04,NW,311,3.7,8.1,69,0.00,CLR,OVC,0.00,WeatherDisplay:10.37,2013-05-07 03:11:00,
2013-05-06 23:16:00,67.4,57.3,30.04,West,275,1.0,2.3,70,0.00,CLR,OVC,0.00,WeatherDisplay:10.37,2013-05-07 03:16:00,
2013-05-06 23:21:00,67.4,57.3,30.04,NNW,330,4.2,5.8,70,0.00,CLR,OVC,0.00,WeatherDisplay:10.37,2013-05-07 03:21:00,
2013-05-06 23:26:00,67.8,57.7,30.04,NNW,330,2.7,5.8,70,0.00,CLR,OVC,0.00,WeatherDisplay:10.37,2013-05-07 03:26:00,
2013-05-06 23:31:00,67.9,57.8,30.04,North,360,1.7,3.5,70,0.00,CLR,OVC,0.00,WeatherDisplay:10.37,2013-05-07 03:31:00,
2013-05-06 23:36:00,68.0,57.8,30.04,NW,322,1.8,5.8,70,0.00,CLR,OVC,0.00,WeatherDisplay:10.37,2013-05-07 03:36:00,
2013-05-06 23:41:00,67.9,57.8,30.04,North,349,2.8,2.8,70,0.00,CLR,OVC,0.00,WeatherDisplay:10.37,2013-05-07 03:41:00,
2013-05-06 23:46:00,67.9,57.8,30.04,West,264,1.4,3.5,70,0.00,CLR,OVC,0.00,WeatherDisplay:10.37,2013-05-07 03:46:00,
2013-05-06 23:51:00,67.7,57.6,30.04,North,349,0.2,2.9,70,0.00,CLR,OVC,0.00,WeatherDisplay:10.37,2013-05-07 03:51:00,
2013-05-06 23:56:00,67.7,57.6,30.04,WNW,299,4.8,6.9,70,0.00,CLR,OVC,0.00,WeatherDisplay:10.37,2013-05-07 03:56:00,